createdAt,value
2019-03-19T00:01:00.789Z,83.74
2019-03-19T00:03:34.424Z,83.64
2019-03-19T00:06:08.142Z,83.61
2019-03-19T00:08:42.850Z,83.76
2019-03-19T00:11:16.571Z,83.88
2019-03-19T00:13:50.282Z,83.89
2019-03-19T00:16:25.201Z,83.77
2019-03-19T00:18:58.829Z,84.14
2019-03-19T00:21:32.631Z,84.01
2019-03-19T00:24:06.877Z,84.35
2019-03-19T00:26:43.433Z,84.30
2019-03-19T00:29:18.245Z,84.35
2019-03-19T00:31:54.419Z,84.49
2019-03-19T00:34:29.450Z,84.48
2019-03-19T00:37:05.047Z,84.36
2019-03-19T00:39:40.809Z,84.53
2019-03-19T00:42:14.615Z,84.51
2019-03-19T00:44:50.558Z,84.23
2019-03-19T00:47:24.656Z,84.04
2019-03-19T00:49:58.426Z,84.01
2019-03-19T00:52:33.771Z,83.78
2019-03-19T00:55:09.032Z,83.91
2019-03-19T00:57:42.818Z,84.32
2019-03-19T01:00:16.844Z,84.33
2019-03-19T01:02:52.335Z,84.34
2019-03-19T01:05:26.096Z,84.52
2019-03-19T01:07:59.796Z,84.57
2019-03-19T01:10:34.939Z,84.81
2019-03-19T01:13:10.577Z,85.25
2019-03-19T01:15:44.217Z,85.23
2019-03-19T01:18:17.975Z,85.15
2019-03-19T01:20:52.718Z,85.10
2019-03-19T01:23:27.396Z,84.70
2019-03-19T01:26:01.082Z,85.06
2019-03-19T01:28:37.126Z,85.39
2019-03-19T01:31:10.954Z,84.43
2019-03-19T01:33:44.694Z,84.21
2019-03-19T01:36:21.238Z,84.43
2019-03-19T01:38:55.103Z,84.08
2019-03-19T01:41:29.727Z,84.03
2019-03-19T01:44:05.473Z,84.08
2019-03-19T01:46:39.091Z,83.60
2019-03-19T01:49:12.796Z,84.58
2019-03-19T01:51:46.534Z,84.61
2019-03-19T01:54:20.276Z,84.72
2019-03-19T01:56:55.071Z,84.80
2019-03-19T01:59:29.454Z,84.53
2019-03-19T02:02:03.202Z,84.60
2019-03-19T02:04:39.220Z,84.67
2019-03-19T02:07:12.886Z,84.51
2019-03-19T02:09:47.655Z,85.07
2019-03-19T02:12:22.411Z,85.22
2019-03-19T02:14:56.247Z,85.25
2019-03-19T02:17:30.119Z,85.35
2019-03-19T02:20:05.843Z,85.31
2019-03-19T02:22:40.805Z,85.88
2019-03-19T02:25:20.223Z,85.86
2019-03-19T02:27:56.390Z,85.94
2019-03-19T02:30:31.583Z,85.63
2019-03-19T02:33:06.390Z,85.86
2019-03-19T02:35:41.905Z,86.09
2019-03-19T02:38:15.546Z,86.30
2019-03-19T02:40:49.282Z,86.20
2019-03-19T02:43:23.940Z,85.99
2019-03-19T02:45:59.631Z,85.97
2019-03-19T02:48:33.549Z,85.81
2019-03-19T02:51:08.807Z,85.83
2019-03-19T02:53:43.686Z,86.08
2019-03-19T02:56:31.739Z,86.14
2019-03-19T02:58:54.768Z,86.27
2019-03-19T03:01:28.452Z,86.60
2019-03-19T03:04:02.566Z,86.91
2019-03-19T03:06:36.333Z,86.50
2019-03-19T03:09:10.062Z,86.78
2019-03-19T03:11:43.909Z,86.85
2019-03-19T03:14:17.655Z,87.20
2019-03-19T03:16:51.363Z,87.55
2019-03-19T03:19:27.383Z,87.50
2019-03-19T03:22:03.342Z,87.64
2019-03-19T03:24:39.204Z,87.83
2019-03-19T03:27:14.093Z,87.98
2019-03-19T03:29:48.859Z,88.06
2019-03-19T03:32:26.244Z,88.64
2019-03-19T03:35:01.362Z,89.13
2019-03-19T03:37:36.269Z,89.26
2019-03-19T03:40:12.095Z,89.36
2019-03-19T03:42:46.048Z,89.75
2019-03-19T03:45:20.072Z,89.56
2019-03-19T03:47:53.869Z,89.77
2019-03-19T03:50:27.515Z,89.87
2019-03-19T03:53:03.049Z,89.93
2019-03-19T03:55:36.789Z,90.05
2019-03-19T03:58:10.912Z,89.82
2019-03-19T04:00:45.703Z,89.56
2019-03-19T04:03:20.429Z,89.34
2019-03-19T04:05:56.072Z,89.22
2019-03-19T04:08:31.267Z,89.28
2019-03-19T04:11:05.043Z,89.55
2019-03-19T04:13:39.164Z,89.64
2019-03-19T04:16:15.220Z,89.72
2019-03-19T04:18:50.378Z,89.48
2019-03-19T04:21:25.888Z,89.52
2019-03-19T04:23:59.769Z,89.17
2019-03-19T04:26:33.824Z,88.94
2019-03-19T04:29:08.744Z,88.83
2019-03-19T04:31:42.893Z,88.30
2019-03-19T04:34:16.670Z,88.73
2019-03-19T04:36:50.883Z,89.14
2019-03-19T04:39:25.711Z,89.00
2019-03-19T04:42:02.064Z,88.96
2019-03-19T04:44:39.981Z,89.11
2019-03-19T04:47:13.987Z,89.11
2019-03-19T04:49:47.821Z,88.56
2019-03-19T04:52:21.382Z,88.56
2019-03-19T04:54:55.217Z,88.92
2019-03-19T04:57:28.918Z,88.94
2019-03-19T05:00:02.786Z,89.26
2019-03-19T05:02:38.388Z,89.36
2019-03-19T05:05:12.719Z,89.26
2019-03-19T05:07:46.503Z,89.62
2019-03-19T05:10:22.052Z,89.93
2019-03-19T05:12:56.134Z,89.82
2019-03-19T05:15:33.352Z,89.52
2019-03-19T05:18:07.027Z,89.40
2019-03-19T05:20:40.799Z,89.72
2019-03-19T05:23:14.806Z,89.18
2019-03-19T05:25:50.067Z,89.29
2019-03-19T05:28:23.788Z,89.19
2019-03-19T05:30:57.524Z,89.18
2019-03-19T05:33:32.733Z,88.97
2019-03-19T05:36:06.407Z,88.88
2019-03-19T05:38:41.146Z,88.45
2019-03-19T05:41:16.627Z,88.54
2019-03-19T05:43:53.945Z,88.28
2019-03-19T05:46:28.532Z,88.24
2019-03-19T05:49:02.589Z,88.55
2019-03-19T05:51:36.636Z,88.37
2019-03-19T05:54:10.609Z,88.19
2019-03-19T05:56:45.736Z,87.03
2019-03-19T05:59:20.424Z,86.80
2019-03-19T06:01:55.293Z,85.88
2019-03-19T06:04:30.127Z,85.18
2019-03-19T06:07:03.882Z,84.81
2019-03-19T06:09:38.834Z,84.75
2019-03-19T06:12:12.505Z,84.43
2019-03-19T06:14:47.901Z,85.01
2019-03-19T06:17:22.868Z,85.27
2019-03-19T06:19:57.765Z,85.17
2019-03-19T06:22:32.925Z,85.00
2019-03-19T06:25:07.525Z,84.34
2019-03-19T06:27:43.198Z,84.55
2019-03-19T06:30:18.002Z,83.23
2019-03-19T06:32:52.774Z,82.45
2019-03-19T06:35:26.676Z,82.59
2019-03-19T06:38:00.313Z,81.53
2019-03-19T06:40:34.495Z,78.70
2019-03-19T06:43:08.895Z,80.69
2019-03-19T06:45:44.675Z,81.00
2019-03-19T06:48:18.369Z,80.00
2019-03-19T06:50:52.145Z,80.11
2019-03-19T06:53:25.889Z,78.30
2019-03-19T06:56:01.049Z,70.89
2019-03-19T06:58:34.662Z,71.96
2019-03-19T07:01:08.249Z,71.59
2019-03-19T07:03:41.911Z,72.56
2019-03-19T07:06:15.506Z,72.08
2019-03-19T07:08:50.365Z,73.06
2019-03-19T07:11:27.241Z,74.11
2019-03-19T07:14:02.072Z,74.71
2019-03-19T07:16:35.881Z,75.91
2019-03-19T07:19:09.902Z,75.93
2019-03-19T07:21:43.772Z,75.36
2019-03-19T07:24:17.702Z,72.90
2019-03-19T07:26:51.455Z,63.38
2019-03-19T07:29:25.248Z,62.20
2019-03-19T07:32:04.173Z,64.71
2019-03-19T07:34:37.815Z,66.15
2019-03-19T07:37:13.403Z,60.10
2019-03-19T07:39:48.951Z,61.00
2019-03-19T07:42:24.501Z,57.69
2019-03-19T07:44:58.206Z,59.47
2019-03-19T07:47:32.234Z,58.90
2019-03-19T07:50:07.180Z,54.90
2019-03-19T07:52:41.165Z,54.03
2019-03-19T07:55:15.382Z,59.05
2019-03-19T07:57:49.038Z,55.03
2019-03-19T08:00:22.970Z,54.78
2019-03-19T08:02:56.703Z,52.71
2019-03-19T08:05:33.466Z,50.96
2019-03-19T08:08:08.129Z,52.57
2019-03-19T08:10:42.938Z,56.12
2019-03-19T08:13:16.787Z,57.57
2019-03-19T08:15:52.314Z,60.87
2019-03-19T08:18:26.046Z,61.44
2019-03-19T08:20:59.696Z,62.67
2019-03-19T08:23:33.712Z,63.36
2019-03-19T08:26:19.809Z,58.76
2019-03-19T08:28:55.485Z,55.41
2019-03-19T08:31:31.621Z,53.13
2019-03-19T08:34:06.022Z,52.45
2019-03-19T08:36:39.845Z,51.89
2019-03-19T08:39:15.191Z,51.54
2019-03-19T08:41:49.057Z,49.87
2019-03-19T08:44:27.649Z,49.10
2019-03-19T08:46:58.147Z,49.17
2019-03-19T08:49:31.759Z,51.43
2019-03-19T08:52:07.302Z,50.36
2019-03-19T08:54:41.412Z,49.19
2019-03-19T08:57:15.267Z,50.10
2019-03-19T08:59:48.985Z,49.61
2019-03-19T09:02:24.682Z,49.02
2019-03-19T09:05:02.875Z,49.67
2019-03-19T09:07:35.682Z,53.19
2019-03-19T09:10:10.400Z,51.87
2019-03-19T09:12:48.136Z,51.73
2019-03-19T09:15:21.464Z,55.41
2019-03-19T09:17:56.736Z,55.89
2019-03-19T09:20:30.827Z,53.71
2019-03-19T09:23:04.500Z,52.17
2019-03-19T09:25:38.880Z,51.81
2019-03-19T09:28:12.477Z,51.66
2019-03-19T09:30:46.183Z,53.99
2019-03-19T09:33:20.022Z,55.52
2019-03-19T09:35:57.234Z,55.79
2019-03-19T09:38:32.005Z,55.98
2019-03-19T09:41:06.188Z,55.09
2019-03-19T09:43:41.770Z,53.36
2019-03-19T09:46:15.546Z,53.83
2019-03-19T09:48:50.717Z,53.05
2019-03-19T09:51:24.424Z,52.59
2019-03-19T09:53:59.671Z,52.09
2019-03-19T09:56:34.549Z,53.94
2019-03-19T09:59:08.701Z,56.56
2019-03-19T10:01:43.508Z,57.36
2019-03-19T10:04:17.762Z,57.16
2019-03-19T10:06:53.923Z,55.49
2019-03-19T10:09:27.942Z,55.93
2019-03-19T10:12:02.766Z,55.05
2019-03-19T10:14:37.696Z,55.54
2019-03-19T10:17:14.488Z,55.73
2019-03-19T10:19:48.756Z,55.78
2019-03-19T10:22:23.525Z,55.76
2019-03-19T10:25:00.223Z,56.46
2019-03-19T10:27:35.130Z,55.46
2019-03-19T10:30:15.992Z,55.56
2019-03-19T10:32:49.945Z,53.87
2019-03-19T10:35:25.157Z,53.90
2019-03-19T10:37:59.468Z,51.56
2019-03-19T10:40:33.191Z,51.36
2019-03-19T10:43:07.460Z,52.49
2019-03-19T10:45:41.285Z,52.97
2019-03-19T10:48:15.284Z,54.25
2019-03-19T10:50:49.149Z,55.37
2019-03-19T10:53:22.825Z,55.06
2019-03-19T10:55:56.631Z,54.23
2019-03-19T10:58:31.754Z,53.57
2019-03-19T11:01:07.526Z,53.55
2019-03-19T11:03:41.357Z,51.69
2019-03-19T11:06:16.885Z,52.00
2019-03-19T11:08:50.789Z,53.25
2019-03-19T11:11:26.778Z,53.41
2019-03-19T11:14:00.859Z,54.06
2019-03-19T11:16:34.511Z,53.34
2019-03-19T11:19:09.740Z,53.40
2019-03-19T11:21:43.528Z,53.82
2019-03-19T11:24:20.594Z,52.72
2019-03-19T11:26:56.140Z,52.06
2019-03-19T11:29:29.814Z,48.69
2019-03-19T11:32:04.748Z,49.42
2019-03-19T11:34:39.023Z,50.38
2019-03-19T11:37:13.252Z,50.54
2019-03-19T11:39:48.867Z,51.28
2019-03-19T11:42:22.670Z,51.36
2019-03-19T11:44:58.405Z,52.78
2019-03-19T11:47:32.524Z,52.35
2019-03-19T11:50:08.846Z,53.25
2019-03-19T11:52:44.035Z,53.94
2019-03-19T11:55:18.138Z,54.42
2019-03-19T11:57:52.180Z,55.38
2019-03-19T12:00:39.792Z,55.38
2019-03-19T12:03:16.518Z,55.12
2019-03-19T12:05:51.708Z,53.16
2019-03-19T12:08:26.449Z,52.81
2019-03-19T12:11:00.094Z,52.22
2019-03-19T12:13:34.462Z,51.79
2019-03-19T12:16:08.426Z,52.23
2019-03-19T12:18:42.058Z,51.82
2019-03-19T12:21:16.094Z,53.18
2019-03-19T12:23:49.688Z,53.33
2019-03-19T12:26:23.382Z,52.97
2019-03-19T12:28:58.256Z,53.29
2019-03-19T12:31:32.138Z,52.66
2019-03-19T12:34:05.743Z,51.83
2019-03-19T12:36:39.655Z,51.06
2019-03-19T12:39:15.426Z,49.44
2019-03-19T12:41:49.318Z,47.37
2019-03-19T12:44:23.156Z,47.43
2019-03-19T12:46:58.589Z,46.60
2019-03-19T12:49:32.307Z,48.07
2019-03-19T12:52:06.521Z,48.76
2019-03-19T12:54:41.051Z,48.05
2019-03-19T12:57:14.827Z,47.83
2019-03-19T12:59:48.610Z,46.85
2019-03-19T13:02:22.639Z,46.18
2019-03-19T13:04:56.966Z,43.94
2019-03-19T13:07:31.810Z,45.96
2019-03-19T13:10:07.219Z,46.36
2019-03-19T13:12:41.013Z,48.23
2019-03-19T13:15:15.507Z,47.83
2019-03-19T13:17:49.845Z,47.41
2019-03-19T13:20:24.110Z,48.05
2019-03-19T13:22:59.963Z,47.30
2019-03-19T13:25:35.818Z,48.88
2019-03-19T13:28:09.832Z,47.13
2019-03-19T13:30:45.455Z,46.07
2019-03-19T13:33:19.046Z,43.96
2019-03-19T13:35:55.966Z,45.62
2019-03-19T13:38:30.113Z,45.37
2019-03-19T13:41:05.016Z,47.37
2019-03-19T13:44:12.012Z,47.60
2019-03-19T13:46:45.980Z,46.00
2019-03-19T13:49:19.740Z,48.70
2019-03-19T13:51:53.808Z,49.44
2019-03-19T13:54:28.945Z,50.42
2019-03-19T13:57:02.598Z,50.41
2019-03-19T13:59:37.546Z,49.36
2019-03-19T14:02:12.470Z,50.00
2019-03-19T14:04:46.313Z,49.48
2019-03-19T14:07:21.370Z,49.16
2019-03-19T14:09:56.597Z,49.52
2019-03-19T14:12:33.092Z,49.52
2019-03-19T14:15:32.359Z,49.06
2019-03-19T14:18:06.895Z,49.50
2019-03-19T14:20:50.631Z,48.62
2019-03-19T14:23:25.447Z,48.65
2019-03-19T14:26:11.382Z,47.88
2019-03-19T14:28:59.208Z,47.85
2019-03-19T14:31:41.498Z,48.14
2019-03-19T14:34:16.141Z,48.19
2019-03-19T14:36:50.319Z,46.73
2019-03-19T14:39:24.219Z,47.53
2019-03-19T14:41:57.852Z,48.34
2019-03-19T14:44:31.957Z,47.90
2019-03-19T14:47:05.680Z,49.06
2019-03-19T14:49:47.039Z,49.83
2019-03-19T14:52:14.632Z,48.48
2019-03-19T14:54:48.278Z,48.19
2019-03-19T14:57:21.910Z,48.70
2019-03-19T14:59:55.624Z,48.90
2019-03-19T15:02:29.488Z,49.81
2019-03-19T15:05:03.068Z,50.85
2019-03-19T15:07:36.654Z,50.17
2019-03-19T15:10:13.428Z,50.84
2019-03-19T15:12:47.228Z,51.51
2019-03-19T15:15:20.955Z,50.87
2019-03-19T15:17:54.938Z,50.85
2019-03-19T15:20:29.185Z,50.71
2019-03-19T15:23:02.876Z,51.22
2019-03-19T15:25:36.431Z,52.11
2019-03-19T15:28:10.003Z,52.36
2019-03-19T15:30:43.673Z,52.61
2019-03-19T15:33:17.574Z,52.04
2019-03-19T15:35:51.456Z,51.79
2019-03-19T15:38:25.044Z,51.76
2019-03-19T15:40:58.690Z,51.80
2019-03-19T15:43:32.278Z,52.84
2019-03-19T15:46:05.921Z,53.96
2019-03-19T15:48:40.183Z,53.56
2019-03-19T15:51:14.216Z,54.11
2019-03-19T15:53:48.087Z,54.53
2019-03-19T15:56:21.714Z,54.21
2019-03-19T15:58:55.586Z,52.52
2019-03-19T16:01:39.929Z,52.96
2019-03-19T16:04:04.956Z,52.04
2019-03-19T16:06:38.570Z,52.08
2019-03-19T16:09:12.238Z,51.80
2019-03-19T16:11:45.830Z,52.47
2019-03-19T16:14:19.467Z,52.93
2019-03-19T16:16:53.139Z,53.22
2019-03-19T16:19:26.777Z,53.69
2019-03-19T16:22:00.343Z,54.03
2019-03-19T16:24:34.035Z,54.40
2019-03-19T16:27:08.169Z,55.22
2019-03-19T16:29:41.804Z,55.78
2019-03-19T16:32:15.446Z,55.65
2019-03-19T16:34:55.371Z,55.42
2019-03-19T16:37:28.918Z,55.96
2019-03-19T16:40:02.543Z,56.19
2019-03-19T16:42:36.815Z,56.27
2019-03-19T16:45:11.397Z,55.51
2019-03-19T16:47:45.027Z,55.65
2019-03-19T16:50:18.991Z,55.66
2019-03-19T16:52:52.562Z,55.57
2019-03-19T16:55:26.325Z,55.62
2019-03-19T16:57:59.964Z,56.65
2019-03-19T17:00:34.049Z,56.18
2019-03-19T17:03:10.495Z,57.02
2019-03-19T17:05:44.602Z,56.82
2019-03-19T17:08:19.258Z,57.41
2019-03-19T17:10:52.895Z,57.59
2019-03-19T17:13:26.564Z,58.47
2019-03-19T17:16:00.574Z,58.75
2019-03-19T17:18:34.194Z,58.98
2019-03-19T17:21:08.110Z,59.56
2019-03-19T17:23:42.542Z,59.71
2019-03-19T17:26:16.401Z,59.66
2019-03-19T17:28:50.106Z,60.24
2019-03-19T17:31:25.115Z,60.70
2019-03-19T17:33:59.018Z,61.11
2019-03-19T17:36:32.566Z,61.76
2019-03-19T17:39:08.878Z,62.05
2019-03-19T17:41:42.796Z,62.45
2019-03-19T17:44:16.673Z,63.28
2019-03-19T17:46:50.245Z,64.01
2019-03-19T17:49:24.154Z,64.49
2019-03-19T17:51:57.797Z,64.98
2019-03-19T17:54:31.403Z,65.20
2019-03-19T17:57:05.006Z,65.21
2019-03-19T17:59:38.642Z,65.35
2019-03-19T18:02:23.307Z,65.38
2019-03-19T18:04:47.748Z,65.42
2019-03-19T18:07:21.297Z,65.49
2019-03-19T18:09:54.969Z,65.97
2019-03-19T18:12:30.719Z,66.32
2019-03-19T18:15:04.493Z,66.84
2019-03-19T18:17:38.256Z,67.10
2019-03-19T18:20:13.644Z,67.65
2019-03-19T18:22:48.177Z,67.57
2019-03-19T18:25:21.994Z,67.94
2019-03-19T18:27:55.753Z,68.50
2019-03-19T18:30:29.380Z,68.63
2019-03-19T18:33:03.104Z,68.50
2019-03-19T18:35:36.695Z,68.65
2019-03-19T18:38:10.910Z,68.58
2019-03-19T18:40:44.906Z,68.90
2019-03-19T18:43:19.219Z,68.77
2019-03-19T18:45:57.012Z,68.87
2019-03-19T18:48:29.973Z,68.83
2019-03-19T18:51:03.584Z,68.87
2019-03-19T18:53:37.342Z,68.87
2019-03-19T18:56:11.567Z,68.50
2019-03-19T18:58:46.090Z,68.37
2019-03-19T19:01:21.058Z,68.35
2019-03-19T19:03:56.714Z,68.54
2019-03-19T19:06:31.604Z,68.65
2019-03-19T19:09:07.356Z,68.67
2019-03-19T19:11:42.290Z,68.72
2019-03-19T19:14:16.495Z,68.97
2019-03-19T19:16:50.293Z,69.40
2019-03-19T19:19:24.492Z,69.58
2019-03-19T19:21:59.941Z,69.88
2019-03-19T19:24:34.403Z,70.10
2019-03-19T19:27:08.373Z,70.43
2019-03-19T19:29:43.300Z,71.01
2019-03-19T19:32:17.430Z,71.59
2019-03-19T19:34:51.332Z,71.97
2019-03-19T19:37:25.205Z,72.50
2019-03-19T19:39:59.075Z,72.57
2019-03-19T19:42:33.821Z,73.06
2019-03-19T19:45:08.666Z,74.39
2019-03-19T19:47:43.649Z,75.96
2019-03-19T19:50:17.805Z,77.66
2019-03-19T19:52:51.937Z,77.66
2019-03-19T19:55:26.007Z,77.76
2019-03-19T19:58:03.083Z,77.72
2019-03-19T20:00:36.998Z,77.50
2019-03-19T20:03:12.957Z,77.49
2019-03-19T20:05:48.468Z,77.36
2019-03-19T20:08:22.113Z,77.28
2019-03-19T20:10:56.512Z,77.20
2019-03-19T20:13:31.461Z,77.06
2019-03-19T20:16:06.479Z,76.99
2019-03-19T20:18:43.483Z,76.55
2019-03-19T20:21:17.940Z,76.72
2019-03-19T20:23:54.392Z,77.17
2019-03-19T20:26:28.784Z,77.18
2019-03-19T20:29:04.663Z,77.34
2019-03-19T20:31:38.808Z,78.03
2019-03-19T20:34:13.048Z,78.29
2019-03-19T20:36:49.355Z,78.68
2019-03-19T20:39:23.446Z,78.44
2019-03-19T20:41:57.232Z,78.75
2019-03-19T20:44:31.814Z,78.31
2019-03-19T20:47:05.978Z,78.27
2019-03-19T20:49:47.585Z,78.15
2019-03-19T20:52:20.856Z,78.00
2019-03-19T20:54:55.715Z,78.13
2019-03-19T20:57:29.740Z,78.65
2019-03-19T21:00:03.548Z,79.52
2019-03-19T21:02:37.826Z,79.71
2019-03-19T21:05:13.302Z,79.98
2019-03-19T21:08:14.622Z,79.79
2019-03-19T21:10:48.766Z,79.88
2019-03-19T21:13:23.058Z,80.21
2019-03-19T21:15:57.303Z,80.28
2019-03-19T21:18:31.175Z,80.45
2019-03-19T21:21:07.838Z,80.13
2019-03-19T21:23:41.497Z,80.10
2019-03-19T21:26:16.027Z,80.24
2019-03-19T21:28:51.252Z,80.60
2019-03-19T21:31:26.964Z,80.56
2019-03-19T21:34:00.801Z,80.92
2019-03-19T21:36:34.913Z,80.89
2019-03-19T21:39:11.164Z,80.79
2019-03-19T21:41:44.957Z,80.74
2019-03-19T21:44:18.666Z,81.06
2019-03-19T21:46:53.222Z,81.21
2019-03-19T21:49:27.543Z,81.25
2019-03-19T21:52:01.720Z,81.09
2019-03-19T21:54:35.743Z,81.04
2019-03-19T21:57:09.545Z,81.04
2019-03-19T21:59:44.964Z,81.40
2019-03-19T22:02:18.848Z,81.41
2019-03-19T22:04:52.533Z,81.09
2019-03-19T22:07:26.496Z,80.78
2019-03-19T22:10:00.102Z,81.42
2019-03-19T22:12:33.766Z,81.86
2019-03-19T22:15:12.908Z,81.75
2019-03-19T22:17:46.786Z,81.88
2019-03-19T22:20:20.628Z,82.05
2019-03-19T22:22:54.478Z,81.58
2019-03-19T22:25:30.746Z,81.74
2019-03-19T22:28:04.728Z,81.81
2019-03-19T22:30:38.505Z,81.84
2019-03-19T22:33:13.292Z,82.07
2019-03-19T22:35:47.037Z,82.07
2019-03-19T22:38:21.147Z,81.93
2019-03-19T22:40:55.023Z,81.68
2019-03-19T22:43:29.960Z,81.74
2019-03-19T22:46:05.919Z,82.23
2019-03-19T22:48:42.891Z,82.54
2019-03-19T22:51:16.892Z,82.98
2019-03-19T22:53:52.326Z,83.88
2019-03-19T22:56:25.998Z,84.29
2019-03-19T22:58:59.859Z,84.45
2019-03-19T23:01:33.541Z,83.78
2019-03-19T23:04:08.413Z,83.97
2019-03-19T23:06:42.015Z,83.75
2019-03-19T23:09:15.707Z,83.74
2019-03-19T23:11:51.154Z,83.56
2019-03-19T23:14:25.012Z,83.72
2019-03-19T23:16:58.821Z,83.42
2019-03-19T23:19:32.613Z,83.41
2019-03-19T23:22:06.978Z,83.09
2019-03-19T23:24:40.805Z,82.37
2019-03-19T23:27:14.719Z,82.24
2019-03-19T23:29:48.317Z,82.34
2019-03-19T23:32:22.155Z,81.79
2019-03-19T23:34:57.510Z,81.60
2019-03-19T23:37:31.157Z,81.40
2019-03-19T23:40:05.204Z,81.39
2019-03-19T23:42:40.617Z,81.46
2019-03-19T23:45:15.816Z,81.78
2019-03-19T23:47:49.537Z,81.72
2019-03-19T23:50:23.384Z,81.56
2019-03-19T23:52:57.027Z,81.59
2019-03-19T23:55:32.540Z,81.48
2019-03-19T23:58:07.196Z,81.64
